Oak Grove, Oregon
Current Conditions -  °F | °C
As of 10:10 AM on Sunday 25 Jan 2015 (Local Time) from KPDX Reporting Station
Moderate Fog Moderate Fog  
Wind Chill: 46°   Ceiling: 200
Heat Index: 46°   Visibility: 0.25mi
Dew Point: 46°   Wind: 0mph
Humidity: 100%   Direction: NA
Pressure: 30.17"   Gusts: NA
Location:  45.42°N, 122.64°W
Report Text: KPDX 251810Z 00000KT 1/4SM R10R/1400V1600FT FG VV002 08/08 A3017 RMK AO2 TWR VIS 1/4 T00780078
Loading
Personal Weather Stations






























Interactive Weather Map New forecast layout! Learn more

10-Day Weather Forecast

Advertisements
Track Severe Weather on mobile